createdAt,value
2022-08-28T00:01:08.116Z,4.22
2022-08-28T00:03:54.794Z,5.65
2022-08-28T00:06:39.957Z,5.93
2022-08-28T00:09:25.425Z,5.70
2022-08-28T00:12:12.380Z,5.65
2022-08-28T00:14:57.548Z,5.68
2022-08-28T00:17:42.580Z,5.60
2022-08-28T00:20:28.859Z,5.70
2022-08-28T00:23:14.934Z,4.68
2022-08-28T00:26:00.592Z,4.75
2022-08-28T00:28:45.556Z,4.10
2022-08-28T00:31:30.638Z,4.10
2022-08-28T00:34:15.957Z,4.00
2022-08-28T00:37:01.557Z,3.92
2022-08-28T00:39:47.834Z,4.00
2022-08-28T00:42:38.332Z,3.60
2022-08-28T00:45:25.384Z,4.03
2022-08-28T00:48:10.886Z,3.38
2022-08-28T00:51:16.117Z,3.72
2022-08-28T00:54:06.862Z,3.70
2022-08-28T00:56:55.081Z,3.65
2022-08-28T00:59:40.351Z,3.67
2022-08-28T01:02:26.539Z,3.45
2022-08-28T01:05:13.653Z,3.38
2022-08-28T01:07:59.340Z,3.55
2022-08-28T01:10:50.327Z,3.20
2022-08-28T01:13:39.666Z,3.03
2022-08-28T01:16:31.676Z,3.25
2022-08-28T01:19:28.829Z,3.22
2022-08-28T01:22:37.336Z,3.58
2022-08-28T01:25:24.669Z,3.30
2022-08-28T01:28:12.626Z,3.63
2022-08-28T01:30:58.314Z,3.53
2022-08-28T01:33:45.108Z,4.15
2022-08-28T01:36:31.184Z,3.47
2022-08-28T01:39:20.457Z,3.90
2022-08-28T01:42:06.821Z,3.22
2022-08-28T01:44:54.104Z,3.15
2022-08-28T01:47:42.352Z,3.40
2022-08-28T01:50:27.464Z,3.50
2022-08-28T01:53:16.390Z,3.65
2022-08-28T01:56:04.829Z,3.33
2022-08-28T01:58:49.959Z,3.50
2022-08-28T02:01:35.729Z,3.78
2022-08-28T02:04:21.180Z,2.95
2022-08-28T02:07:16.907Z,3.15
2022-08-28T02:10:02.811Z,2.78
2022-08-28T02:12:49.236Z,3.80
2022-08-28T02:15:36.523Z,3.47
2022-08-28T02:18:21.800Z,3.42
2022-08-28T02:21:08.129Z,4.03
2022-08-28T02:23:54.301Z,4.25
2022-08-28T02:26:39.609Z,4.10
2022-08-28T02:29:27.069Z,4.38
2022-08-28T02:32:12.451Z,4.40
2022-08-28T02:34:57.674Z,3.80
2022-08-28T02:37:44.373Z,3.78
2022-08-28T02:40:30.395Z,4.15
2022-08-28T02:43:15.534Z,3.92
2022-08-28T02:46:00.945Z,4.45
2022-08-28T02:48:46.085Z,3.80
2022-08-28T02:51:33.497Z,4.22
2022-08-28T02:54:18.654Z,3.85
2022-08-28T02:57:03.694Z,3.83
2022-08-28T02:59:48.998Z,4.50
2022-08-28T03:02:34.161Z,4.25
2022-08-28T03:05:23.318Z,3.40
2022-08-28T03:08:08.419Z,3.80
2022-08-28T03:10:53.729Z,3.50
2022-08-28T03:13:39.126Z,4.32
2022-08-28T03:16:25.379Z,3.75
2022-08-28T03:19:10.405Z,3.75
2022-08-28T03:21:55.641Z,3.70
2022-08-28T03:24:41.383Z,3.38
2022-08-28T03:27:26.559Z,3.80
2022-08-28T03:30:12.382Z,4.00
2022-08-28T03:32:57.710Z,3.95
2022-08-28T03:35:42.992Z,3.38
2022-08-28T03:38:28.211Z,3.42
2022-08-28T03:41:17.364Z,3.08
2022-08-28T03:44:02.927Z,2.50
2022-08-28T03:46:47.837Z,2.80
2022-08-28T03:49:32.907Z,2.80
2022-08-28T03:52:17.992Z,2.55
2022-08-28T03:55:04.467Z,3.17
2022-08-28T03:57:49.340Z,3.38
2022-08-28T04:00:35.360Z,2.72
2022-08-28T04:03:20.742Z,2.60
2022-08-28T04:06:06.191Z,2.60
2022-08-28T04:08:51.326Z,2.75
2022-08-28T04:11:43.858Z,3.20
2022-08-28T04:14:28.911Z,3.15
2022-08-28T04:17:14.535Z,3.50
2022-08-28T04:19:59.768Z,3.58
2022-08-28T04:22:45.252Z,3.42
2022-08-28T04:25:31.642Z,3.58
2022-08-28T04:28:17.620Z,3.67
2022-08-28T04:31:03.289Z,3.60
2022-08-28T04:33:48.285Z,3.97
2022-08-28T04:36:33.762Z,3.65
2022-08-28T04:39:19.556Z,4.00
2022-08-28T04:42:05.009Z,3.80
2022-08-28T04:44:50.421Z,3.78
2022-08-28T04:47:37.939Z,4.22
2022-08-28T04:50:22.818Z,3.72
2022-08-28T04:53:08.278Z,3.20
2022-08-28T04:55:55.217Z,3.45
2022-08-28T04:58:42.481Z,3.20
2022-08-28T05:01:27.619Z,3.58
2022-08-28T05:04:13.170Z,3.08
2022-08-28T05:06:58.243Z,3.10
2022-08-28T05:09:43.599Z,3.22
2022-08-28T05:12:28.512Z,2.78
2022-08-28T05:15:13.971Z,3.30
2022-08-28T05:17:59.497Z,3.58
2022-08-28T05:20:46.444Z,3.17
2022-08-28T05:23:31.638Z,3.17
2022-08-28T05:26:19.013Z,2.90
2022-08-28T05:29:05.574Z,3.10
2022-08-28T05:31:50.516Z,2.85
2022-08-28T05:34:35.978Z,2.78
2022-08-28T05:37:21.287Z,2.95
2022-08-28T05:40:07.265Z,2.53
2022-08-28T05:42:52.594Z,2.30
2022-08-28T05:45:37.843Z,2.50
2022-08-28T05:48:23.312Z,2.30
2022-08-28T05:51:13.442Z,2.22
2022-08-28T05:53:58.916Z,2.50
2022-08-28T05:56:46.021Z,2.42
2022-08-28T05:59:31.267Z,2.45
2022-08-28T06:02:16.653Z,2.15
2022-08-28T06:05:02.024Z,2.58
2022-08-28T06:07:46.974Z,2.88
2022-08-28T06:10:32.292Z,2.83
2022-08-28T06:13:17.637Z,2.72
2022-08-28T06:16:05.341Z,2.22
2022-08-28T06:18:53.498Z,2.67
2022-08-28T06:21:41.465Z,2.60
2022-08-28T06:24:28.152Z,2.35
2022-08-28T06:27:13.179Z,2.35
2022-08-28T06:29:58.700Z,2.15
2022-08-28T06:32:43.770Z,2.28
2022-08-28T06:35:28.761Z,2.70
2022-08-28T06:38:14.658Z,1.98
2022-08-28T06:41:00.088Z,2.28
2022-08-28T06:43:45.104Z,2.25
2022-08-28T06:46:33.145Z,2.28
2022-08-28T06:49:18.517Z,3.03
2022-08-28T06:52:03.573Z,1.90
2022-08-28T06:54:55.297Z,2.15
2022-08-28T06:57:41.217Z,2.05
2022-08-28T07:00:26.657Z,2.40
2022-08-28T07:03:12.432Z,1.67
2022-08-28T07:05:59.151Z,1.67
2022-08-28T07:08:44.595Z,1.35
2022-08-28T07:11:31.633Z,1.52
2022-08-28T07:14:17.157Z,1.90
2022-08-28T07:17:02.360Z,1.35
2022-08-28T07:19:47.509Z,1.50
2022-08-28T07:22:33.293Z,2.25
2022-08-28T07:25:18.373Z,1.60
2022-08-28T07:28:05.538Z,1.70
2022-08-28T07:31:03.457Z,1.40
2022-08-28T07:33:50.859Z,1.55
2022-08-28T07:36:40.047Z,1.70
2022-08-28T07:39:25.211Z,1.58
2022-08-28T07:42:33.926Z,1.70
2022-08-28T07:45:21.182Z,2.00
2022-08-28T07:48:11.291Z,1.73
2022-08-28T07:50:57.061Z,1.73
2022-08-28T07:53:42.265Z,1.70
2022-08-28T07:56:29.939Z,1.35
2022-08-28T07:59:17.402Z,1.50
2022-08-28T08:02:05.498Z,1.58
2022-08-28T08:04:50.694Z,1.40
2022-08-28T08:07:39.840Z,1.67
2022-08-28T08:10:27.259Z,1.80
2022-08-28T08:13:18.985Z,1.75
2022-08-28T08:16:11.881Z,1.95
2022-08-28T08:18:57.702Z,2.25
2022-08-28T08:21:45.719Z,1.98
2022-08-28T08:24:31.268Z,1.70
2022-08-28T08:27:16.530Z,1.88
2022-08-28T08:30:01.829Z,1.48
2022-08-28T08:32:47.085Z,1.58
2022-08-28T08:35:32.481Z,1.70
2022-08-28T08:38:17.569Z,1.65
2022-08-28T08:41:13.781Z,1.50
2022-08-28T08:44:17.593Z,1.73
2022-08-28T08:47:14.903Z,1.33
2022-08-28T08:50:09.355Z,1.52
2022-08-28T08:53:06.641Z,1.25
2022-08-28T08:55:54.329Z,1.50
2022-08-28T08:58:42.419Z,1.40
2022-08-28T09:01:41.592Z,1.67
2022-08-28T09:07:25.292Z,1.58
2022-08-28T09:10:12.459Z,1.25
2022-08-28T09:13:13.909Z,1.83
2022-08-28T09:16:00.174Z,1.52
2022-08-28T09:18:45.863Z,1.92
2022-08-28T09:21:34.370Z,1.55
2022-08-28T09:24:29.734Z,1.70
2022-08-28T09:27:25.993Z,1.58
2022-08-28T09:30:11.439Z,1.35
2022-08-28T09:33:01.022Z,1.98
2022-08-28T09:35:45.990Z,1.65
2022-08-28T09:38:31.165Z,1.40
2022-08-28T09:41:35.102Z,1.50
2022-08-28T09:44:20.618Z,1.70
2022-08-28T09:47:05.658Z,1.40
2022-08-28T09:49:50.821Z,1.40
2022-08-28T09:52:36.058Z,1.65
2022-08-28T09:55:56.985Z,1.23
2022-08-28T09:58:48.705Z,1.80
2022-08-28T10:01:49.132Z,1.40
2022-08-28T10:04:43.454Z,1.52
2022-08-28T10:07:56.677Z,1.95
2022-08-28T10:10:47.962Z,1.48
2022-08-28T10:13:47.179Z,1.20
2022-08-28T10:16:51.051Z,1.65
2022-08-28T10:19:48.193Z,1.35
2022-08-28T10:22:36.372Z,1.52
2022-08-28T10:25:46.325Z,1.63
2022-08-28T10:28:50.262Z,1.63
2022-08-28T10:31:52.613Z,1.42
2022-08-28T10:34:49.830Z,1.88
2022-08-28T10:37:59.852Z,1.50
2022-08-28T10:41:17.388Z,1.33
2022-08-28T10:44:05.174Z,1.73
2022-08-28T10:46:55.563Z,1.35
2022-08-28T10:49:44.253Z,1.42
2022-08-28T10:52:45.200Z,1.48
2022-08-28T10:55:37.544Z,1.80
2022-08-28T10:58:25.998Z,1.67
2022-08-28T11:01:24.852Z,2.00
2022-08-28T11:04:25.511Z,1.80
2022-08-28T11:07:19.901Z,1.70
2022-08-28T11:10:34.879Z,1.50
2022-08-28T11:13:42.983Z,2.00
2022-08-28T11:16:28.096Z,1.60
2022-08-28T11:19:22.734Z,1.67
2022-08-28T11:22:17.729Z,1.58
2022-08-28T11:25:34.293Z,1.40
2022-08-28T11:28:24.045Z,1.30
2022-08-28T11:31:09.984Z,1.75
2022-08-28T11:34:00.117Z,1.30
2022-08-28T11:36:45.201Z,1.48
2022-08-28T11:39:30.425Z,1.67
2022-08-28T11:42:34.339Z,1.73
2022-08-28T11:45:22.146Z,1.60
2022-08-28T11:48:07.306Z,1.35
2022-08-28T11:51:03.285Z,1.30
2022-08-28T11:53:59.793Z,1.73
2022-08-28T11:57:06.249Z,1.33
2022-08-28T12:00:29.108Z,1.50
2022-08-28T12:03:24.352Z,1.48
2022-08-28T12:06:10.873Z,1.40
2022-08-28T12:08:58.984Z,1.50
2022-08-28T12:11:43.852Z,1.38
2022-08-28T12:14:28.860Z,1.40
2022-08-28T12:17:16.803Z,1.45
2022-08-28T12:20:10.219Z,1.27
2022-08-28T12:23:01.490Z,1.90
2022-08-28T12:25:47.311Z,1.27
2022-08-28T12:29:03.423Z,1.55
2022-08-28T12:32:07.041Z,1.38
2022-08-28T12:34:57.907Z,1.42
2022-08-28T12:37:52.823Z,1.42
2022-08-28T12:40:41.682Z,1.42
2022-08-28T12:43:35.783Z,1.45
2022-08-28T12:46:30.994Z,1.67
2022-08-28T12:49:37.580Z,1.42
2022-08-28T12:52:25.360Z,1.45
2022-08-28T12:55:10.781Z,1.80
2022-08-28T12:57:56.152Z,1.25
2022-08-28T13:00:56.623Z,1.10
2022-08-28T13:03:54.694Z,1.40
2022-08-28T13:06:39.805Z,1.45
2022-08-28T13:09:28.282Z,1.17
2022-08-28T13:12:55.951Z,1.08
2022-08-28T13:15:48.852Z,1.20
2022-08-28T13:18:43.054Z,1.10
2022-08-28T13:21:33.972Z,1.10
2022-08-28T13:24:42.389Z,1.40
2022-08-28T13:27:28.173Z,1.10
2022-08-28T13:30:20.053Z,1.45
2022-08-28T13:33:23.674Z,1.08
2022-08-28T13:36:24.718Z,1.20
2022-08-28T13:39:09.987Z,1.50
2022-08-28T13:41:58.434Z,1.30
2022-08-28T13:44:48.748Z,1.40
2022-08-28T13:47:33.696Z,0.90
2022-08-28T13:50:19.088Z,1.10
2022-08-28T13:53:04.261Z,1.27
2022-08-28T13:55:50.441Z,1.33
2022-08-28T13:58:35.337Z,1.00
2022-08-28T14:01:24.421Z,1.17
2022-08-28T14:04:19.593Z,1.00
2022-08-28T14:07:04.736Z,1.30
2022-08-28T14:09:55.473Z,1.30
2022-08-28T14:12:43.124Z,1.27
2022-08-28T14:15:28.319Z,1.02
2022-08-28T14:18:13.539Z,1.10
2022-08-28T14:20:58.670Z,1.25
2022-08-28T14:23:43.890Z,1.05
2022-08-28T14:26:30.253Z,1.30
2022-08-28T14:29:17.747Z,1.10
2022-08-28T14:32:04.182Z,0.90
2022-08-28T14:34:50.634Z,1.42
2022-08-28T14:37:35.937Z,1.10
2022-08-28T14:40:20.974Z,1.52
2022-08-28T14:43:07.344Z,1.45
2022-08-28T14:45:52.611Z,1.20
2022-08-28T14:48:37.778Z,1.35
2022-08-28T14:51:23.468Z,1.25
2022-08-28T14:54:11.517Z,1.10
2022-08-28T14:56:56.473Z,1.00
2022-08-28T14:59:41.653Z,1.23
2022-08-28T15:02:27.021Z,1.17
2022-08-28T15:05:12.177Z,1.23
2022-08-28T15:07:57.470Z,1.55
2022-08-28T15:10:44.491Z,1.30
2022-08-28T15:13:31.544Z,1.00
2022-08-28T15:16:20.849Z,1.00
2022-08-28T15:19:06.982Z,1.30
2022-08-28T15:21:54.974Z,1.30
2022-08-28T15:24:40.488Z,1.00
2022-08-28T15:27:25.636Z,1.23
2022-08-28T15:30:11.653Z,1.58
2022-08-28T15:32:58.026Z,1.15
2022-08-28T15:35:43.027Z,1.40
2022-08-28T15:38:28.315Z,1.30
2022-08-28T15:41:25.790Z,1.60
2022-08-28T15:44:14.961Z,1.38
2022-08-28T15:47:02.294Z,1.00
2022-08-28T15:49:54.279Z,1.15
2022-08-28T15:52:40.883Z,1.58
2022-08-28T15:55:27.794Z,1.20
2022-08-28T15:58:14.281Z,1.02
2022-08-28T16:00:59.597Z,1.15
2022-08-28T16:03:44.735Z,1.13
2022-08-28T16:06:30.042Z,1.10
2022-08-28T16:09:15.331Z,0.90
2022-08-28T16:12:00.510Z,1.25
2022-08-28T16:14:45.922Z,1.10
2022-08-28T16:17:31.230Z,1.50
2022-08-28T16:20:16.569Z,1.00
2022-08-28T16:23:02.077Z,1.02
2022-08-28T16:25:47.172Z,0.80
2022-08-28T16:28:33.307Z,1.15
2022-08-28T16:31:20.639Z,1.20
2022-08-28T16:34:06.452Z,1.23
2022-08-28T16:39:40.372Z,1.00
2022-08-28T16:42:28.590Z,1.05
2022-08-28T16:45:16.629Z,1.00
2022-08-28T16:48:01.557Z,1.20
2022-08-28T16:50:47.029Z,1.38
2022-08-28T16:53:32.709Z,0.90
2022-08-28T16:56:17.865Z,1.08
2022-08-28T16:59:04.156Z,1.02
2022-08-28T17:01:55.426Z,1.17
2022-08-28T17:04:40.447Z,1.50
2022-08-28T17:07:26.201Z,1.38
2022-08-28T17:10:14.174Z,1.10
2022-08-28T17:12:59.553Z,0.95
2022-08-28T17:15:44.936Z,1.10
2022-08-28T17:18:30.282Z,1.38
2022-08-28T17:21:34.026Z,1.20
2022-08-28T17:24:19.597Z,1.25
2022-08-28T17:27:05.861Z,1.13
2022-08-28T17:29:51.615Z,1.35
2022-08-28T17:32:37.246Z,1.30
2022-08-28T17:35:22.801Z,1.20
2022-08-28T17:38:08.739Z,1.17
2022-08-28T17:40:54.060Z,1.50
2022-08-28T17:43:39.463Z,1.25
2022-08-28T17:46:25.677Z,1.48
2022-08-28T17:49:11.433Z,1.40
2022-08-28T17:51:56.715Z,1.30
2022-08-28T17:54:41.976Z,1.20
2022-08-28T17:57:30.479Z,1.25
2022-08-28T18:00:16.497Z,1.48
2022-08-28T18:03:01.624Z,1.13
2022-08-28T18:05:46.951Z,1.20
2022-08-28T18:08:32.226Z,1.08
2022-08-28T18:11:19.156Z,1.23
2022-08-28T18:14:04.538Z,1.08
2022-08-28T18:16:49.602Z,1.73
2022-08-28T18:19:34.771Z,1.15
2022-08-28T18:22:20.074Z,1.40
2022-08-28T18:25:06.640Z,1.20
2022-08-28T18:27:51.864Z,1.58
2022-08-28T18:30:37.097Z,1.23
2022-08-28T18:33:24.100Z,1.48
2022-08-28T18:36:11.698Z,1.73
2022-08-28T18:38:57.500Z,1.52
2022-08-28T18:41:43.866Z,1.52
2022-08-28T18:44:31.849Z,0.90
2022-08-28T18:47:17.812Z,1.25
2022-08-28T18:50:05.062Z,1.30
2022-08-28T18:52:51.890Z,1.40
2022-08-28T18:55:37.194Z,1.70
2022-08-28T18:58:23.814Z,1.05
2022-08-28T19:01:09.409Z,1.20
2022-08-28T19:03:55.410Z,1.45
2022-08-28T19:06:41.032Z,1.42
2022-08-28T19:09:32.112Z,1.42
2022-08-28T19:12:17.613Z,1.38
2022-08-28T19:15:03.446Z,1.40
2022-08-28T19:17:49.044Z,1.80
2022-08-28T19:20:34.784Z,3.40
2022-08-28T19:23:19.929Z,2.38
2022-08-28T19:26:06.676Z,2.38
2022-08-28T19:28:52.101Z,1.80
2022-08-28T19:31:37.595Z,1.85
2022-08-28T19:34:23.702Z,1.70
2022-08-28T19:37:08.861Z,1.90
2022-08-28T19:39:57.371Z,1.30
2022-08-28T19:42:42.731Z,1.58
2022-08-28T19:45:27.838Z,1.65
2022-08-28T19:48:14.182Z,1.40
2022-08-28T19:51:04.568Z,1.23
2022-08-28T19:53:57.916Z,1.70
2022-08-28T19:56:43.821Z,1.17
2022-08-28T19:59:28.993Z,2.00
2022-08-28T20:02:14.271Z,1.73
2022-08-28T20:04:59.457Z,1.70
2022-08-28T20:07:44.724Z,1.50
2022-08-28T20:10:31.552Z,1.50
2022-08-28T20:13:17.915Z,1.25
2022-08-28T20:16:05.046Z,2.08
2022-08-28T20:18:50.446Z,1.50
2022-08-28T20:21:38.388Z,1.52
2022-08-28T20:24:24.902Z,1.80
2022-08-28T20:27:09.990Z,1.60
2022-08-28T20:29:55.111Z,1.65
2022-08-28T20:32:41.682Z,1.80
2022-08-28T20:35:27.561Z,1.52
2022-08-28T20:38:13.690Z,1.50
2022-08-28T20:41:24.810Z,1.65
2022-08-28T20:44:12.826Z,1.25
2022-08-28T20:46:58.416Z,1.48
2022-08-28T20:49:43.631Z,1.52
2022-08-28T20:52:28.670Z,1.25
2022-08-28T20:55:14.193Z,1.45
2022-08-28T20:57:59.119Z,2.10
2022-08-28T21:00:44.709Z,1.90
2022-08-28T21:03:30.104Z,1.70
2022-08-28T21:06:15.302Z,1.77
2022-08-28T21:09:00.614Z,1.60
2022-08-28T21:11:46.200Z,1.38
2022-08-28T21:14:31.307Z,1.60
2022-08-28T21:17:16.888Z,1.55
2022-08-28T21:20:15.271Z,1.92
2022-08-28T21:23:00.391Z,1.77
2022-08-28T21:25:45.513Z,1.80
2022-08-28T21:28:30.485Z,1.80
2022-08-28T21:31:15.740Z,1.60
2022-08-28T21:34:00.894Z,2.30
2022-08-28T21:36:50.379Z,1.90
2022-08-28T21:39:36.073Z,1.77
2022-08-28T21:42:20.977Z,1.90
2022-08-28T21:45:11.858Z,2.10
2022-08-28T21:47:57.804Z,2.60
2022-08-28T21:50:43.106Z,2.30
2022-08-28T21:53:28.506Z,2.50
2022-08-28T21:56:26.023Z,1.60
2022-08-28T21:59:11.404Z,2.20
2022-08-28T22:01:57.311Z,1.90
2022-08-28T22:04:43.028Z,1.63
2022-08-28T22:07:28.358Z,2.03
2022-08-28T22:10:13.976Z,1.67
2022-08-28T22:12:58.930Z,2.05
2022-08-28T22:15:46.042Z,1.83
2022-08-28T22:18:32.109Z,1.50
2022-08-28T22:21:41.724Z,1.70
2022-08-28T22:24:27.195Z,1.95
2022-08-28T22:27:13.504Z,2.67
2022-08-28T22:29:58.718Z,2.30
2022-08-28T22:32:45.278Z,2.40
2022-08-28T22:35:30.405Z,1.85
2022-08-28T22:38:15.701Z,2.53
2022-08-28T22:41:00.819Z,2.33
2022-08-28T22:43:48.179Z,1.92
2022-08-28T22:46:35.888Z,2.10
2022-08-28T22:49:21.072Z,2.30
2022-08-28T22:52:06.273Z,1.88
2022-08-28T22:54:53.147Z,1.83
2022-08-28T22:57:38.583Z,1.90
2022-08-28T23:00:26.509Z,2.15
2022-08-28T23:03:11.953Z,1.70
2022-08-28T23:05:58.275Z,1.83
2022-08-28T23:08:43.978Z,1.60
2022-08-28T23:11:29.045Z,1.52
2022-08-28T23:14:14.826Z,2.00
2022-08-28T23:17:00.014Z,1.92
2022-08-28T23:19:48.020Z,2.00
2022-08-28T23:22:34.165Z,1.80
2022-08-28T23:25:22.817Z,1.88
2022-08-28T23:28:08.009Z,1.77
2022-08-28T23:30:53.288Z,2.00
2022-08-28T23:33:38.704Z,2.10
2022-08-28T23:36:23.986Z,2.03
2022-08-28T23:39:09.557Z,2.20
2022-08-28T23:41:55.014Z,1.83
2022-08-28T23:44:40.189Z,2.30
2022-08-28T23:47:25.613Z,1.80
2022-08-28T23:50:18.071Z,2.25
2022-08-28T23:53:04.423Z,2.40
2022-08-28T23:55:50.052Z,2.20
2022-08-28T23:58:35.821Z,2.50
